sensor_id;sensor_type;location;lat;lon;timestamp;P1;durP1;ratioP1;P2;durP2;ratioP2
1178;SDS011;578;48.408;10.004;2024-02-28T00:01:54;36.90;;;28.50;;
1178;SDS011;578;48.408;10.004;2024-02-28T00:03:56;37.47;;;29.55;;
1178;SDS011;578;48.408;10.004;2024-02-28T00:05:58;40.90;;;30.70;;
1178;SDS011;578;48.408;10.004;2024-02-28T00:08:00;35.38;;;28.63;;
1178;SDS011;578;48.408;10.004;2024-02-28T00:10:02;37.77;;;29.40;;
1178;SDS011;578;48.408;10.004;2024-02-28T00:12:04;39.53;;;29.23;;
1178;SDS011;578;48.408;10.004;2024-02-28T00:14:06;38.47;;;30.73;;
1178;SDS011;578;48.408;10.004;2024-02-28T00:16:08;36.05;;;30.05;;
1178;SDS011;578;48.408;10.004;2024-02-28T00:18:10;34.88;;;28.95;;
1178;SDS011;578;48.408;10.004;2024-02-28T00:20:11;37.80;;;29.83;;
1178;SDS011;578;48.408;10.004;2024-02-28T00:22:13;40.30;;;30.88;;
1178;SDS011;578;48.408;10.004;2024-02-28T00:24:15;36.40;;;28.45;;
1178;SDS011;578;48.408;10.004;2024-02-28T00:26:18;37.95;;;30.88;;
1178;SDS011;578;48.408;10.004;2024-02-28T00:28:19;37.25;;;30.30;;
1178;SDS011;578;48.408;10.004;2024-02-28T00:30:21;41.35;;;31.70;;
1178;SDS011;578;48.408;10.004;2024-02-28T00:32:23;40.15;;;30.38;;
1178;SDS011;578;48.408;10.004;2024-02-28T00:34:24;38.83;;;29.67;;
1178;SDS011;578;48.408;10.004;2024-02-28T00:36:27;36.85;;;29.73;;
1178;SDS011;578;48.408;10.004;2024-02-28T00:38:28;37.28;;;30.27;;
1178;SDS011;578;48.408;10.004;2024-02-28T00:40:30;39.50;;;30.85;;
1178;SDS011;578;48.408;10.004;2024-02-28T00:42:33;38.85;;;30.63;;
1178;SDS011;578;48.408;10.004;2024-02-28T00:44:35;39.75;;;29.83;;
1178;SDS011;578;48.408;10.004;2024-02-28T00:46:38;39.13;;;29.85;;
1178;SDS011;578;48.408;10.004;2024-02-28T00:48:40;42.08;;;33.00;;
1178;SDS011;578;48.408;10.004;2024-02-28T00:50:42;38.95;;;30.23;;
1178;SDS011;578;48.408;10.004;2024-02-28T00:52:44;40.70;;;31.30;;
1178;SDS011;578;48.408;10.004;2024-02-28T00:54:45;41.78;;;33.45;;
1178;SDS011;578;48.408;10.004;2024-02-28T00:56:46;37.93;;;30.13;;
1178;SDS011;578;48.408;10.004;2024-02-28T00:58:49;43.40;;;31.63;;
1178;SDS011;578;48.408;10.004;2024-02-28T01:00:51;38.72;;;31.23;;
1178;SDS011;578;48.408;10.004;2024-02-28T01:02:53;40.53;;;31.73;;
1178;SDS011;578;48.408;10.004;2024-02-28T01:04:55;38.63;;;30.75;;
1178;SDS011;578;48.408;10.004;2024-02-28T01:06:56;40.20;;;32.53;;
1178;SDS011;578;48.408;10.004;2024-02-28T01:08:58;39.88;;;31.65;;
1178;SDS011;578;48.408;10.004;2024-02-28T01:10:59;41.53;;;31.87;;
1178;SDS011;578;48.408;10.004;2024-02-28T01:13:01;33.97;;;30.02;;
1178;SDS011;578;48.408;10.004;2024-02-28T01:15:03;39.73;;;31.50;;
1178;SDS011;578;48.408;10.004;2024-02-28T01:17:05;42.42;;;30.50;;
1178;SDS011;578;48.408;10.004;2024-02-28T01:19:07;43.40;;;32.65;;
1178;SDS011;578;48.408;10.004;2024-02-28T01:21:09;38.75;;;30.63;;
1178;SDS011;578;48.408;10.004;2024-02-28T01:23:11;41.38;;;30.83;;
1178;SDS011;578;48.408;10.004;2024-02-28T01:25:12;39.97;;;31.27;;
1178;SDS011;578;48.408;10.004;2024-02-28T01:27:14;42.53;;;31.42;;
1178;SDS011;578;48.408;10.004;2024-02-28T01:29:16;41.58;;;31.52;;
1178;SDS011;578;48.408;10.004;2024-02-28T01:31:18;38.60;;;31.33;;
1178;SDS011;578;48.408;10.004;2024-02-28T01:33:20;42.55;;;30.83;;
1178;SDS011;578;48.408;10.004;2024-02-28T01:35:22;41.88;;;31.73;;
1178;SDS011;578;48.408;10.004;2024-02-28T01:37:24;38.33;;;30.55;;
1178;SDS011;578;48.408;10.004;2024-02-28T01:39:25;38.58;;;29.63;;
1178;SDS011;578;48.408;10.004;2024-02-28T01:41:27;40.97;;;30.48;;
1178;SDS011;578;48.408;10.004;2024-02-28T01:43:29;42.25;;;31.23;;
1178;SDS011;578;48.408;10.004;2024-02-28T01:45:31;39.30;;;31.15;;
1178;SDS011;578;48.408;10.004;2024-02-28T01:47:33;37.60;;;30.30;;
1178;SDS011;578;48.408;10.004;2024-02-28T01:49:35;44.85;;;31.45;;
1178;SDS011;578;48.408;10.004;2024-02-28T01:51:36;41.72;;;30.98;;
1178;SDS011;578;48.408;10.004;2024-02-28T01:53:37;42.03;;;31.73;;
1178;SDS011;578;48.408;10.004;2024-02-28T01:55:39;37.67;;;30.63;;
1178;SDS011;578;48.408;10.004;2024-02-28T01:57:42;39.83;;;30.70;;
1178;SDS011;578;48.408;10.004;2024-02-28T01:59:45;37.58;;;30.65;;
1178;SDS011;578;48.408;10.004;2024-02-28T02:01:47;40.70;;;30.40;;
1178;SDS011;578;48.408;10.004;2024-02-28T02:03:50;42.55;;;31.10;;
1178;SDS011;578;48.408;10.004;2024-02-28T02:05:51;38.45;;;29.60;;
1178;SDS011;578;48.408;10.004;2024-02-28T02:07:53;39.03;;;30.42;;
1178;SDS011;578;48.408;10.004;2024-02-28T02:09:55;40.30;;;31.55;;
1178;SDS011;578;48.408;10.004;2024-02-28T02:11:57;40.40;;;30.80;;
1178;SDS011;578;48.408;10.004;2024-02-28T02:13:59;40.10;;;30.45;;
1178;SDS011;578;48.408;10.004;2024-02-28T02:15:59;43.40;;;33.30;;
1178;SDS011;578;48.408;10.004;2024-02-28T02:18:01;41.55;;;31.35;;
1178;SDS011;578;48.408;10.004;2024-02-28T02:20:05;37.88;;;30.40;;
1178;SDS011;578;48.408;10.004;2024-02-28T02:22:10;44.13;;;32.92;;
1178;SDS011;578;48.408;10.004;2024-02-28T02:24:16;47.00;;;34.05;;
1178;SDS011;578;48.408;10.004;2024-02-28T02:26:18;45.03;;;33.55;;
1178;SDS011;578;48.408;10.004;2024-02-28T02:28:19;40.10;;;29.70;;
1178;SDS011;578;48.408;10.004;2024-02-28T02:30:21;42.97;;;31.80;;
1178;SDS011;578;48.408;10.004;2024-02-28T02:32:23;36.85;;;30.08;;
1178;SDS011;578;48.408;10.004;2024-02-28T02:34:25;43.10;;;30.95;;
1178;SDS011;578;48.408;10.004;2024-02-28T02:36:26;41.95;;;31.35;;
1178;SDS011;578;48.408;10.004;2024-02-28T02:38:28;41.50;;;29.83;;
1178;SDS011;578;48.408;10.004;2024-02-28T02:40:31;39.85;;;29.73;;
1178;SDS011;578;48.408;10.004;2024-02-28T02:42:33;45.75;;;31.70;;
1178;SDS011;578;48.408;10.004;2024-02-28T02:44:34;42.93;;;31.00;;
1178;SDS011;578;48.408;10.004;2024-02-28T02:46:36;50.38;;;33.47;;
1178;SDS011;578;48.408;10.004;2024-02-28T02:48:37;43.47;;;31.75;;
1178;SDS011;578;48.408;10.004;2024-02-28T02:50:39;48.53;;;33.65;;
1178;SDS011;578;48.408;10.004;2024-02-28T02:52:41;44.78;;;32.47;;
1178;SDS011;578;48.408;10.004;2024-02-28T02:54:42;45.90;;;32.43;;
1178;SDS011;578;48.408;10.004;2024-02-28T02:56:45;46.78;;;32.90;;
1178;SDS011;578;48.408;10.004;2024-02-28T02:58:46;43.53;;;32.80;;
1178;SDS011;578;48.408;10.004;2024-02-28T03:00:48;45.28;;;32.60;;
1178;SDS011;578;48.408;10.004;2024-02-28T03:02:49;43.58;;;31.23;;
1178;SDS011;578;48.408;10.004;2024-02-28T03:04:51;43.72;;;31.33;;
1178;SDS011;578;48.408;10.004;2024-02-28T03:06:53;43.20;;;31.63;;
1178;SDS011;578;48.408;10.004;2024-02-28T03:08:55;43.95;;;31.05;;
1178;SDS011;578;48.408;10.004;2024-02-28T03:10:56;44.75;;;31.23;;
1178;SDS011;578;48.408;10.004;2024-02-28T03:12:59;45.40;;;31.85;;
1178;SDS011;578;48.408;10.004;2024-02-28T03:15:02;46.35;;;33.15;;
1178;SDS011;578;48.408;10.004;2024-02-28T03:17:04;43.35;;;31.63;;
1178;SDS011;578;48.408;10.004;2024-02-28T03:19:05;43.42;;;32.40;;
1178;SDS011;578;48.408;10.004;2024-02-28T03:21:06;40.95;;;30.70;;
1178;SDS011;578;48.408;10.004;2024-02-28T03:23:09;42.92;;;33.22;;
1178;SDS011;578;48.408;10.004;2024-02-28T03:25:11;44.42;;;31.70;;
1178;SDS011;578;48.408;10.004;2024-02-28T03:27:13;41.70;;;31.08;;
1178;SDS011;578;48.408;10.004;2024-02-28T03:29:16;47.22;;;34.28;;
1178;SDS011;578;48.408;10.004;2024-02-28T03:31:17;46.10;;;33.90;;
1178;SDS011;578;48.408;10.004;2024-02-28T03:33:19;47.55;;;34.25;;
1178;SDS011;578;48.408;10.004;2024-02-28T03:35:22;47.08;;;33.20;;
1178;SDS011;578;48.408;10.004;2024-02-28T03:37:23;48.05;;;34.13;;
1178;SDS011;578;48.408;10.004;2024-02-28T03:39:26;45.03;;;33.22;;
1178;SDS011;578;48.408;10.004;2024-02-28T03:41:28;43.70;;;32.30;;
1178;SDS011;578;48.408;10.004;2024-02-28T03:43:30;49.05;;;32.65;;
1178;SDS011;578;48.408;10.004;2024-02-28T03:45:36;47.65;;;31.70;;
1178;SDS011;578;48.408;10.004;2024-02-28T03:47:37;45.30;;;32.28;;
1178;SDS011;578;48.408;10.004;2024-02-28T03:49:39;48.60;;;35.17;;
1178;SDS011;578;48.408;10.004;2024-02-28T03:51:40;46.60;;;32.73;;
1178;SDS011;578;48.408;10.004;2024-02-28T03:53:42;46.13;;;33.92;;
1178;SDS011;578;48.408;10.004;2024-02-28T03:55:43;43.53;;;31.50;;
1178;SDS011;578;48.408;10.004;2024-02-28T03:57:46;48.85;;;33.20;;
1178;SDS011;578;48.408;10.004;2024-02-28T03:59:48;45.70;;;33.67;;
1178;SDS011;578;48.408;10.004;2024-02-28T04:01:50;48.80;;;31.20;;
1178;SDS011;578;48.408;10.004;2024-02-28T04:03:52;45.55;;;33.40;;
1178;SDS011;578;48.408;10.004;2024-02-28T04:05:54;49.55;;;32.92;;
1178;SDS011;578;48.408;10.004;2024-02-28T04:07:55;45.33;;;32.60;;
1178;SDS011;578;48.408;10.004;2024-02-28T04:09:57;48.40;;;33.63;;
1178;SDS011;578;48.408;10.004;2024-02-28T04:11:58;48.85;;;33.95;;
1178;SDS011;578;48.408;10.004;2024-02-28T04:14:00;50.58;;;35.80;;
1178;SDS011;578;48.408;10.004;2024-02-28T04:16:02;48.50;;;34.15;;
1178;SDS011;578;48.408;10.004;2024-02-28T04:18:05;49.88;;;35.88;;
1178;SDS011;578;48.408;10.004;2024-02-28T04:20:08;48.72;;;34.25;;
1178;SDS011;578;48.408;10.004;2024-02-28T04:22:10;45.67;;;33.85;;
1178;SDS011;578;48.408;10.004;2024-02-28T04:24:11;45.10;;;31.03;;
1178;SDS011;578;48.408;10.004;2024-02-28T04:26:13;47.00;;;33.42;;
1178;SDS011;578;48.408;10.004;2024-02-28T04:28:14;45.28;;;31.90;;
1178;SDS011;578;48.408;10.004;2024-02-28T04:30:16;52.00;;;34.38;;
1178;SDS011;578;48.408;10.004;2024-02-28T04:32:17;46.07;;;32.53;;
1178;SDS011;578;48.408;10.004;2024-02-28T04:34:20;48.22;;;33.45;;
1178;SDS011;578;48.408;10.004;2024-02-28T04:36:22;42.95;;;31.00;;
1178;SDS011;578;48.408;10.004;2024-02-28T04:38:24;45.28;;;32.28;;
1178;SDS011;578;48.408;10.004;2024-02-28T04:40:25;46.85;;;32.50;;
1178;SDS011;578;48.408;10.004;2024-02-28T04:42:27;47.70;;;33.80;;
1178;SDS011;578;48.408;10.004;2024-02-28T04:44:29;46.45;;;31.75;;
1178;SDS011;578;48.408;10.004;2024-02-28T04:46:31;51.97;;;34.08;;
1178;SDS011;578;48.408;10.004;2024-02-28T04:48:35;47.78;;;32.30;;
1178;SDS011;578;48.408;10.004;2024-02-28T04:50:38;44.85;;;31.58;;
1178;SDS011;578;48.408;10.004;2024-02-28T04:52:39;44.38;;;31.88;;
1178;SDS011;578;48.408;10.004;2024-02-28T04:54:40;45.03;;;31.73;;
1178;SDS011;578;48.408;10.004;2024-02-28T04:56:42;50.25;;;32.13;;
1178;SDS011;578;48.408;10.004;2024-02-28T04:58:44;50.25;;;34.45;;
1178;SDS011;578;48.408;10.004;2024-02-28T05:00:46;46.78;;;32.30;;
1178;SDS011;578;48.408;10.004;2024-02-28T05:02:48;46.00;;;32.47;;
1178;SDS011;578;48.408;10.004;2024-02-28T05:04:49;43.03;;;30.95;;
1178;SDS011;578;48.408;10.004;2024-02-28T05:06:51;46.37;;;32.80;;
1178;SDS011;578;48.408;10.004;2024-02-28T05:08:53;50.15;;;33.40;;
1178;SDS011;578;48.408;10.004;2024-02-28T05:10:55;46.25;;;32.65;;
1178;SDS011;578;48.408;10.004;2024-02-28T05:12:57;51.25;;;34.15;;
1178;SDS011;578;48.408;10.004;2024-02-28T05:14:59;47.38;;;32.13;;
1178;SDS011;578;48.408;10.004;2024-02-28T05:17:01;47.35;;;32.97;;
1178;SDS011;578;48.408;10.004;2024-02-28T05:19:03;43.90;;;31.75;;
1178;SDS011;578;48.408;10.004;2024-02-28T05:21:05;41.25;;;29.65;;
1178;SDS011;578;48.408;10.004;2024-02-28T05:23:08;45.00;;;30.33;;
1178;SDS011;578;48.408;10.004;2024-02-28T05:25:10;41.05;;;29.48;;
1178;SDS011;578;48.408;10.004;2024-02-28T05:27:12;40.47;;;30.38;;
1178;SDS011;578;48.408;10.004;2024-02-28T05:29:12;40.13;;;30.13;;
1178;SDS011;578;48.408;10.004;2024-02-28T05:31:20;39.72;;;29.55;;
1178;SDS011;578;48.408;10.004;2024-02-28T05:33:23;41.38;;;29.77;;
1178;SDS011;578;48.408;10.004;2024-02-28T05:35:24;42.22;;;28.13;;
1178;SDS011;578;48.408;10.004;2024-02-28T05:37:26;41.38;;;30.75;;
1178;SDS011;578;48.408;10.004;2024-02-28T05:39:29;43.00;;;29.70;;
1178;SDS011;578;48.408;10.004;2024-02-28T05:41:32;38.72;;;28.58;;
1178;SDS011;578;48.408;10.004;2024-02-28T05:43:33;42.30;;;29.75;;
1178;SDS011;578;48.408;10.004;2024-02-28T05:45:35;41.60;;;29.50;;
1178;SDS011;578;48.408;10.004;2024-02-28T05:47:37;40.25;;;28.75;;
1178;SDS011;578;48.408;10.004;2024-02-28T05:49:39;41.92;;;30.30;;
1178;SDS011;578;48.408;10.004;2024-02-28T05:51:40;38.50;;;29.63;;
1178;SDS011;578;48.408;10.004;2024-02-28T05:53:41;43.45;;;29.25;;
1178;SDS011;578;48.408;10.004;2024-02-28T05:55:45;40.65;;;30.08;;
1178;SDS011;578;48.408;10.004;2024-02-28T05:57:47;44.05;;;30.10;;
1178;SDS011;578;48.408;10.004;2024-02-28T05:59:49;38.78;;;28.63;;
1178;SDS011;578;48.408;10.004;2024-02-28T06:01:50;41.67;;;28.40;;
1178;SDS011;578;48.408;10.004;2024-02-28T06:03:51;42.47;;;28.35;;
1178;SDS011;578;48.408;10.004;2024-02-28T06:05:53;40.83;;;30.50;;
1178;SDS011;578;48.408;10.004;2024-02-28T06:07:57;40.35;;;29.00;;
1178;SDS011;578;48.408;10.004;2024-02-28T06:09:59;40.70;;;29.15;;
1178;SDS011;578;48.408;10.004;2024-02-28T06:12:02;43.13;;;31.33;;
1178;SDS011;578;48.408;10.004;2024-02-28T06:14:04;44.00;;;29.20;;
1178;SDS011;578;48.408;10.004;2024-02-28T06:16:05;45.10;;;29.90;;
1178;SDS011;578;48.408;10.004;2024-02-28T06:18:07;43.25;;;29.95;;
1178;SDS011;578;48.408;10.004;2024-02-28T06:20:09;41.38;;;29.70;;
1178;SDS011;578;48.408;10.004;2024-02-28T06:22:11;40.50;;;29.10;;
1178;SDS011;578;48.408;10.004;2024-02-28T06:24:14;39.30;;;29.40;;
1178;SDS011;578;48.408;10.004;2024-02-28T06:26:15;42.78;;;29.67;;
1178;SDS011;578;48.408;10.004;2024-02-28T06:28:18;47.60;;;31.55;;
1178;SDS011;578;48.408;10.004;2024-02-28T06:30:21;42.25;;;30.38;;
1178;SDS011;578;48.408;10.004;2024-02-28T06:32:23;41.53;;;28.52;;
1178;SDS011;578;48.408;10.004;2024-02-28T06:34:25;41.28;;;28.80;;
1178;SDS011;578;48.408;10.004;2024-02-28T06:36:27;53.50;;;41.85;;
1178;SDS011;578;48.408;10.004;2024-02-28T06:38:29;42.65;;;31.27;;
1178;SDS011;578;48.408;10.004;2024-02-28T06:40:30;40.45;;;29.27;;
1178;SDS011;578;48.408;10.004;2024-02-28T06:42:32;41.05;;;28.60;;
1178;SDS011;578;48.408;10.004;2024-02-28T06:44:36;42.83;;;29.45;;
1178;SDS011;578;48.408;10.004;2024-02-28T06:46:38;45.30;;;33.40;;
1178;SDS011;578;48.408;10.004;2024-02-28T06:48:40;43.83;;;30.15;;
1178;SDS011;578;48.408;10.004;2024-02-28T06:50:42;43.40;;;30.02;;
1178;SDS011;578;48.408;10.004;2024-02-28T06:52:44;40.88;;;28.67;;
1178;SDS011;578;48.408;10.004;2024-02-28T06:54:45;44.70;;;30.58;;
1178;SDS011;578;48.408;10.004;2024-02-28T06:56:47;40.05;;;28.40;;
1178;SDS011;578;48.408;10.004;2024-02-28T06:58:49;41.85;;;29.30;;
1178;SDS011;578;48.408;10.004;2024-02-28T07:00:51;39.93;;;28.90;;
1178;SDS011;578;48.408;10.004;2024-02-28T07:02:53;43.65;;;29.35;;
1178;SDS011;578;48.408;10.004;2024-02-28T07:04:54;39.38;;;29.30;;
1178;SDS011;578;48.408;10.004;2024-02-28T07:06:56;39.42;;;28.67;;
1178;SDS011;578;48.408;10.004;2024-02-28T07:08:58;37.50;;;27.67;;
1178;SDS011;578;48.408;10.004;2024-02-28T07:11:00;40.00;;;27.85;;
1178;SDS011;578;48.408;10.004;2024-02-28T07:13:02;38.30;;;28.38;;
1178;SDS011;578;48.408;10.004;2024-02-28T07:15:04;39.60;;;28.20;;
1178;SDS011;578;48.408;10.004;2024-02-28T07:17:07;39.95;;;28.05;;
1178;SDS011;578;48.408;10.004;2024-02-28T07:19:10;39.42;;;27.20;;
1178;SDS011;578;48.408;10.004;2024-02-28T07:21:12;40.13;;;28.35;;
1178;SDS011;578;48.408;10.004;2024-02-28T07:23:14;40.05;;;28.67;;
1178;SDS011;578;48.408;10.004;2024-02-28T07:25:16;40.50;;;28.60;;
1178;SDS011;578;48.408;10.004;2024-02-28T07:27:17;40.80;;;28.10;;
1178;SDS011;578;48.408;10.004;2024-02-28T07:29:18;41.50;;;28.90;;
1178;SDS011;578;48.408;10.004;2024-02-28T07:31:20;40.17;;;28.92;;
1178;SDS011;578;48.408;10.004;2024-02-28T07:33:23;37.90;;;27.55;;
1178;SDS011;578;48.408;10.004;2024-02-28T07:35:25;38.10;;;27.85;;
1178;SDS011;578;48.408;10.004;2024-02-28T07:37:27;42.47;;;29.73;;
1178;SDS011;578;48.408;10.004;2024-02-28T07:39:28;44.83;;;31.13;;
1178;SDS011;578;48.408;10.004;2024-02-28T07:41:30;44.70;;;29.90;;
1178;SDS011;578;48.408;10.004;2024-02-28T07:43:32;39.40;;;29.08;;
1178;SDS011;578;48.408;10.004;2024-02-28T07:45:37;46.60;;;30.02;;
1178;SDS011;578;48.408;10.004;2024-02-28T07:47:40;43.65;;;29.00;;
1178;SDS011;578;48.408;10.004;2024-02-28T07:49:44;47.03;;;30.60;;
1178;SDS011;578;48.408;10.004;2024-02-28T07:51:46;39.67;;;28.02;;
1178;SDS011;578;48.408;10.004;2024-02-28T07:53:47;38.38;;;27.48;;
1178;SDS011;578;48.408;10.004;2024-02-28T07:55:49;39.08;;;28.65;;
1178;SDS011;578;48.408;10.004;2024-02-28T07:57:50;39.63;;;28.17;;
1178;SDS011;578;48.408;10.004;2024-02-28T07:59:53;38.08;;;28.27;;
1178;SDS011;578;48.408;10.004;2024-02-28T08:01:54;39.22;;;29.23;;
1178;SDS011;578;48.408;10.004;2024-02-28T08:03:56;44.67;;;30.73;;
1178;SDS011;578;48.408;10.004;2024-02-28T08:06:01;42.35;;;30.48;;
1178;SDS011;578;48.408;10.004;2024-02-28T08:08:03;40.50;;;30.25;;
1178;SDS011;578;48.408;10.004;2024-02-28T08:10:05;41.65;;;29.40;;
1178;SDS011;578;48.408;10.004;2024-02-28T08:12:10;41.20;;;29.77;;
1178;SDS011;578;48.408;10.004;2024-02-28T08:14:11;38.10;;;28.98;;
1178;SDS011;578;48.408;10.004;2024-02-28T08:16:12;40.77;;;28.77;;
1178;SDS011;578;48.408;10.004;2024-02-28T08:18:14;40.47;;;28.83;;
1178;SDS011;578;48.408;10.004;2024-02-28T08:20:16;40.40;;;27.58;;
1178;SDS011;578;48.408;10.004;2024-02-28T08:22:19;41.70;;;27.98;;
1178;SDS011;578;48.408;10.004;2024-02-28T08:24:21;42.17;;;28.20;;
1178;SDS011;578;48.408;10.004;2024-02-28T08:26:23;39.67;;;28.48;;
1178;SDS011;578;48.408;10.004;2024-02-28T08:28:23;37.30;;;27.70;;
1178;SDS011;578;48.408;10.004;2024-02-28T08:30:25;37.85;;;28.40;;
1178;SDS011;578;48.408;10.004;2024-02-28T08:32:27;41.20;;;29.02;;
1178;SDS011;578;48.408;10.004;2024-02-28T08:34:29;41.75;;;28.25;;
1178;SDS011;578;48.408;10.004;2024-02-28T08:36:30;38.97;;;26.85;;
1178;SDS011;578;48.408;10.004;2024-02-28T08:38:33;38.85;;;28.30;;
1178;SDS011;578;48.408;10.004;2024-02-28T08:40:39;42.25;;;27.58;;
1178;SDS011;578;48.408;10.004;2024-02-28T08:42:41;41.60;;;26.90;;
1178;SDS011;578;48.408;10.004;2024-02-28T08:44:42;38.83;;;28.13;;
1178;SDS011;578;48.408;10.004;2024-02-28T08:46:44;44.42;;;30.38;;
1178;SDS011;578;48.408;10.004;2024-02-28T08:48:47;38.65;;;26.75;;
1178;SDS011;578;48.408;10.004;2024-02-28T08:50:49;43.67;;;27.60;;
1178;SDS011;578;48.408;10.004;2024-02-28T08:52:51;36.08;;;26.88;;
1178;SDS011;578;48.408;10.004;2024-02-28T08:54:54;37.90;;;28.25;;
1178;SDS011;578;48.408;10.004;2024-02-28T08:56:56;34.83;;;25.90;;
1178;SDS011;578;48.408;10.004;2024-02-28T08:58:57;34.22;;;25.35;;
1178;SDS011;578;48.408;10.004;2024-02-28T09:00:59;44.17;;;34.42;;
1178;SDS011;578;48.408;10.004;2024-02-28T09:03:00;39.03;;;26.87;;
1178;SDS011;578;48.408;10.004;2024-02-28T09:05:04;38.90;;;28.25;;
1178;SDS011;578;48.408;10.004;2024-02-28T09:07:07;37.13;;;27.05;;
1178;SDS011;578;48.408;10.004;2024-02-28T09:09:08;38.30;;;25.85;;
1178;SDS011;578;48.408;10.004;2024-02-28T09:11:11;41.75;;;27.23;;
1178;SDS011;578;48.408;10.004;2024-02-28T09:13:13;34.75;;;25.35;;
1178;SDS011;578;48.408;10.004;2024-02-28T09:15:15;35.80;;;26.27;;
1178;SDS011;578;48.408;10.004;2024-02-28T09:17:16;33.87;;;26.03;;
1178;SDS011;578;48.408;10.004;2024-02-28T09:19:18;37.50;;;27.43;;
1178;SDS011;578;48.408;10.004;2024-02-28T09:21:19;39.00;;;27.70;;
1178;SDS011;578;48.408;10.004;2024-02-28T09:23:21;35.33;;;26.52;;
1178;SDS011;578;48.408;10.004;2024-02-28T09:25:23;39.00;;;26.25;;
1178;SDS011;578;48.408;10.004;2024-02-28T09:27:25;37.97;;;27.03;;
1178;SDS011;578;48.408;10.004;2024-02-28T09:29:27;38.17;;;27.40;;
1178;SDS011;578;48.408;10.004;2024-02-28T09:31:28;31.65;;;23.70;;
1178;SDS011;578;48.408;10.004;2024-02-28T09:33:30;27.33;;;22.67;;
1178;SDS011;578;48.408;10.004;2024-02-28T09:35:32;30.73;;;24.00;;
1178;SDS011;578;48.408;10.004;2024-02-28T09:37:34;31.17;;;23.75;;
1178;SDS011;578;48.408;10.004;2024-02-28T09:39:37;35.17;;;25.05;;
1178;SDS011;578;48.408;10.004;2024-02-28T09:41:39;40.45;;;27.63;;
1178;SDS011;578;48.408;10.004;2024-02-28T09:43:43;31.35;;;24.60;;
1178;SDS011;578;48.408;10.004;2024-02-28T09:45:47;30.90;;;22.48;;
1178;SDS011;578;48.408;10.004;2024-02-28T09:47:49;34.78;;;24.77;;
1178;SDS011;578;48.408;10.004;2024-02-28T09:49:51;31.88;;;25.20;;
1178;SDS011;578;48.408;10.004;2024-02-28T09:51:54;32.97;;;23.83;;
1178;SDS011;578;48.408;10.004;2024-02-28T09:53:58;36.17;;;24.92;;
1178;SDS011;578;48.408;10.004;2024-02-28T09:56:00;37.50;;;24.77;;
1178;SDS011;578;48.408;10.004;2024-02-28T09:58:02;36.95;;;27.05;;
1178;SDS011;578;48.408;10.004;2024-02-28T10:00:06;42.03;;;26.98;;
1178;SDS011;578;48.408;10.004;2024-02-28T10:02:10;35.45;;;24.48;;
1178;SDS011;578;48.408;10.004;2024-02-28T10:04:15;31.88;;;25.45;;
1178;SDS011;578;48.408;10.004;2024-02-28T10:06:18;34.90;;;25.50;;
1178;SDS011;578;48.408;10.004;2024-02-28T10:08:20;36.60;;;25.65;;
1178;SDS011;578;48.408;10.004;2024-02-28T10:10:22;32.50;;;24.23;;
1178;SDS011;578;48.408;10.004;2024-02-28T10:12:24;34.50;;;24.70;;
1178;SDS011;578;48.408;10.004;2024-02-28T10:14:26;34.17;;;25.02;;
1178;SDS011;578;48.408;10.004;2024-02-28T10:16:30;38.08;;;25.23;;
1178;SDS011;578;48.408;10.004;2024-02-28T10:18:31;37.63;;;24.75;;
1178;SDS011;578;48.408;10.004;2024-02-28T10:20:33;36.47;;;24.67;;
1178;SDS011;578;48.408;10.004;2024-02-28T10:22:36;38.30;;;26.85;;
1178;SDS011;578;48.408;10.004;2024-02-28T10:24:38;30.40;;;22.98;;
1178;SDS011;578;48.408;10.004;2024-02-28T10:26:42;39.60;;;24.90;;
1178;SDS011;578;48.408;10.004;2024-02-28T10:28:44;34.45;;;25.80;;
1178;SDS011;578;48.408;10.004;2024-02-28T10:30:46;34.42;;;24.42;;
1178;SDS011;578;48.408;10.004;2024-02-28T10:32:49;36.70;;;25.58;;
1178;SDS011;578;48.408;10.004;2024-02-28T10:34:51;34.45;;;24.67;;
1178;SDS011;578;48.408;10.004;2024-02-28T10:36:54;35.03;;;25.27;;
1178;SDS011;578;48.408;10.004;2024-02-28T10:38:56;32.40;;;24.58;;
1178;SDS011;578;48.408;10.004;2024-02-28T10:40:59;31.90;;;23.92;;
1178;SDS011;578;48.408;10.004;2024-02-28T10:43:01;32.72;;;23.98;;
1178;SDS011;578;48.408;10.004;2024-02-28T10:45:05;32.50;;;24.95;;
1178;SDS011;578;48.408;10.004;2024-02-28T10:47:10;30.90;;;24.63;;
1178;SDS011;578;48.408;10.004;2024-02-28T10:49:14;31.67;;;24.10;;
1178;SDS011;578;48.408;10.004;2024-02-28T10:51:16;30.58;;;24.33;;
1178;SDS011;578;48.408;10.004;2024-02-28T10:53:32;31.38;;;23.15;;
1178;SDS011;578;48.408;10.004;2024-02-28T10:55:39;34.40;;;24.95;;
1178;SDS011;578;48.408;10.004;2024-02-28T10:57:43;32.70;;;24.33;;
1178;SDS011;578;48.408;10.004;2024-02-28T10:59:48;31.20;;;23.38;;
1178;SDS011;578;48.408;10.004;2024-02-28T11:01:50;35.20;;;23.73;;
1178;SDS011;578;48.408;10.004;2024-02-28T11:03:52;32.63;;;24.43;;
1178;SDS011;578;48.408;10.004;2024-02-28T11:05:55;33.90;;;25.35;;
1178;SDS011;578;48.408;10.004;2024-02-28T11:07:57;34.03;;;25.67;;
1178;SDS011;578;48.408;10.004;2024-02-28T11:10:04;37.63;;;25.80;;
1178;SDS011;578;48.408;10.004;2024-02-28T11:12:07;32.97;;;24.30;;
1178;SDS011;578;48.408;10.004;2024-02-28T11:14:25;35.60;;;25.42;;
1178;SDS011;578;48.408;10.004;2024-02-28T11:16:28;35.28;;;24.75;;
1178;SDS011;578;48.408;10.004;2024-02-28T11:18:30;35.33;;;25.05;;
1178;SDS011;578;48.408;10.004;2024-02-28T11:20:31;36.53;;;25.70;;
1178;SDS011;578;48.408;10.004;2024-02-28T11:22:34;35.77;;;25.37;;
1178;SDS011;578;48.408;10.004;2024-02-28T11:24:37;34.28;;;25.92;;
1178;SDS011;578;48.408;10.004;2024-02-28T11:26:39;37.70;;;25.67;;
1178;SDS011;578;48.408;10.004;2024-02-28T11:28:42;33.78;;;26.48;;
1178;SDS011;578;48.408;10.004;2024-02-28T11:30:43;40.37;;;27.80;;
1178;SDS011;578;48.408;10.004;2024-02-28T11:32:44;37.65;;;26.88;;
1178;SDS011;578;48.408;10.004;2024-02-28T11:34:45;37.80;;;26.00;;
1178;SDS011;578;48.408;10.004;2024-02-28T11:36:47;41.78;;;27.67;;
1178;SDS011;578;48.408;10.004;2024-02-28T11:38:51;35.15;;;25.55;;
1178;SDS011;578;48.408;10.004;2024-02-28T11:40:53;34.30;;;26.75;;
1178;SDS011;578;48.408;10.004;2024-02-28T11:42:55;38.13;;;28.15;;
1178;SDS011;578;48.408;10.004;2024-02-28T11:44:59;38.77;;;27.40;;
1178;SDS011;578;48.408;10.004;2024-02-28T11:47:05;35.17;;;25.30;;
1178;SDS011;578;48.408;10.004;2024-02-28T11:49:10;42.63;;;29.10;;
1178;SDS011;578;48.408;10.004;2024-02-28T11:51:12;39.87;;;26.77;;
1178;SDS011;578;48.408;10.004;2024-02-28T11:53:14;38.58;;;26.17;;
1178;SDS011;578;48.408;10.004;2024-02-28T11:55:17;37.90;;;26.30;;
1178;SDS011;578;48.408;10.004;2024-02-28T11:57:19;36.07;;;25.17;;
1178;SDS011;578;48.408;10.004;2024-02-28T11:59:21;39.10;;;26.53;;
1178;SDS011;578;48.408;10.004;2024-02-28T12:01:32;37.60;;;26.37;;
1178;SDS011;578;48.408;10.004;2024-02-28T12:03:37;32.00;;;25.00;;
1178;SDS011;578;48.408;10.004;2024-02-28T12:05:46;30.53;;;23.30;;
1178;SDS011;578;48.408;10.004;2024-02-28T12:07:47;31.17;;;24.33;;
1178;SDS011;578;48.408;10.004;2024-02-28T12:09:48;30.93;;;23.73;;
1178;SDS011;578;48.408;10.004;2024-02-28T12:11:51;34.47;;;23.33;;
1178;SDS011;578;48.408;10.004;2024-02-28T12:13:54;36.20;;;25.53;;
1178;SDS011;578;48.408;10.004;2024-02-28T12:15:56;31.27;;;23.80;;
1178;SDS011;578;48.408;10.004;2024-02-28T12:17:58;25.70;;;21.17;;